Latest Coastal Weather Observations for Parndana

IDS60701

Issued at 11:31 pm CST Sunday 14 April 2024 (issued every 10 minutes, with the page automatically refreshed every 10 minutes)

About coastal observations | Map of coastal stations | Coastal observations for SA | Marine services | Other Formats
Station Details ID: 022843 Name: PARNDANA CFS AWS Lat: -35.79 Lon: 137.25 Height: 165.0 m
Data from the previous 72 hours. | See also: Recent months at Parndana
Date/Time
CST
Wind Sea
Height
m
Swell Vis
km
Cloud Weather Temp
°C
Press
MSL
hPa
Rain since
9am
mm
Dir  Spd
kts
Gust
kts
Height
m
Period
s
Dir
14/11:30pm S 2 2 - - - - - - - 9.1 - 0.0
14/11:00pm SSW 3 3 - - - - - - - 9.6 - 0.0
14/10:30pm SSW 3 3 - - - - - - - 9.4 - 0.0
14/10:00pm SSW 1 2 - - - - - - - 9.9 - 0.0
14/09:30pm SSW 2 2 - - - - - - - 9.7 - 0.0
14/09:00pm S 3 3 - - - - - - - 9.8 - 0.0
14/08:30pm S 3 3 - - - - - - - 10.1 - 0.0
14/08:00pm SSE 3 3 - - - - - - - 10.9 - 0.0
14/07:30pm SSE 3 4 - - - - - - - 10.6 - 0.0
14/07:00pm S 5 5 - - - - - - - 11.5 - 0.0
14/06:30pm SSE 5 7 - - - - - - - 12.3 - 0.0
14/06:00pm S 6 7 - - - - - - - 13.5 - 0.0
14/05:30pm S 9 11 - - - - - - - 14.7 - 0.0
14/05:00pm S 10 14 - - - - - - - 15.8 - 0.0
14/04:30pm S 9 13 - - - - - - - 16.9 - 0.0
14/04:00pm SSW 9 13 - - - - - - - 16.5 - 0.0
14/03:30pm S 9 12 - - - - - - - 17.6 - 0.0
14/03:00pm S 9 14 - - - - - - - 18.2 - 0.0
14/02:30pm SW 6 9 - - - - - - - 18.9 - 0.0
14/02:00pm S 7 11 - - - - - - - 19.3 - 0.0
14/01:30pm S 7 11 - - - - - - - 18.6 - 0.0
14/01:00pm SSW 5 8 - - - - - - - 18.5 - 0.0
14/12:30pm SSW 6 11 - - - - - - - 17.9 - 0.0
14/12:00pm SSW 4 8 - - - - - - - 18.2 - 0.0
14/11:30am SSW 5 11 - - - - - - - 17.4 - 0.0
14/11:00am S 5 11 - - - - - - - 17.5 - 0.0
14/10:30am S 4 8 - - - - - - - 16.6 - 0.0
14/10:00am SSW 4 8 - - - - - - - 16.3 - 0.0
14/09:30am SW 4 6 - - - - - - - 15.2 - 0.0
14/09:00am SW 3 6 - - - - - - - 14.5 - 0.2
14/08:30am NW 2 3 - - - - - - - 13.1 - 0.2
14/08:00am NNW 1 2 - - - - - - - 10.9 - 0.2
14/07:30am N 3 3 - - - - - - - 8.8 - 0.2
14/07:00am WNW 2 2 - - - - - - - 7.6 - 0.2
14/06:30am WNW 2 3 - - - - - - - 7.7 - 0.2
14/06:00am WNW 3 3 - - - - - - Recent precip. 6.8 - 0.2
14/05:30am N 2 3 - - - - - - - 7.1 - 0.0
14/05:00am NE 1 2 - - - - - - - 6.7 - 0.0
14/04:30am NE 2 2 - - - - - - - 6.0 - 0.0
14/04:00am SE 3 3 - - - - - - - 8.7 - 0.0
14/03:30am SE 2 3 - - - - - - - 7.3 - 0.0
14/03:00am SE 1 1 - - - - - - - 6.4 - 0.0
14/02:30am SE 1 1 - - - - - - - 6.6 - 0.0
14/02:00am SE 2 3 - - - - - - - 9.4 - 0.0
14/01:30am SE 2 2 - - - - - - - 10.1 - 0.0
14/01:00am CALM 0 0 - - - - - - - 10.0 - 0.0
14/12:30am CALM 0 0 - - - - - - - 10.1 - 0.0
14/12:00am S 2 2 - - - - - - - 10.4 - 0.0
 
Date/Time
CST
Wind Sea
Height
m
Swell Vis
km
Cloud Weather Temp
°C
Press
MSL
hPa
Rain since
9am
mm
Dir  Spd
kts
Gust
kts
Height
m
Period
s
Dir
13/11:30pm S 1 2 - - - - - - - 10.6 - 0.0
13/11:00pm SSW 1 2 - - - - - - - 10.9 - 0.0
13/10:30pm CALM 0 0 - - - - - - - 12.2 - 0.0
13/10:00pm SE 3 5 - - - - - - - 12.6 - 0.0
13/09:30pm SE 3 3 - - - - - - - 12.7 - 0.0
13/09:00pm SE 3 3 - - - - - - - 12.8 - 0.0
13/08:30pm SSE 2 3 - - - - - - - 13.0 - 0.0
13/08:00pm SSE 3 3 - - - - - - - 13.0 - 0.0
13/07:30pm SSE 3 4 - - - - - - - 12.8 - 0.0
13/07:00pm SSE 3 4 - - - - - - - 13.0 - 0.0
13/06:30pm SSE 4 5 - - - - - - - 13.2 - 0.0
13/06:00pm S 6 8 - - - - - - - 13.3 - 0.0
13/05:30pm S 7 9 - - - - - - - 14.7 - 0.0
13/05:00pm S 8 10 - - - - - - - 15.6 - 0.0
13/04:30pm SSE 9 12 - - - - - - - 16.3 - 0.0
13/04:00pm S 6 9 - - - - - - - 17.2 - 0.0
13/03:30pm SSE 6 8 - - - - - - - 16.9 - 0.0
13/03:00pm S 6 11 - - - - - - - 18.0 - 0.0
13/02:30pm S 5 10 - - - - - - - 18.2 - 0.0
13/02:00pm SE 4 9 - - - - - - - 17.9 - 0.0
13/01:30pm S 5 11 - - - - - - - 17.9 - 0.0
13/01:00pm WSW 4 7 - - - - - - - 16.3 - 0.0
13/12:30pm WSW 2 4 - - - - - - - 16.2 - 0.0
13/12:00pm SE 3 6 - - - - - - - 15.8 - 0.0
13/11:30am S 1 3 - - - - - - - 15.5 - 0.0
13/11:00am SSW 3 5 - - - - - - - 14.8 - 0.0
13/10:30am S 1 4 - - - - - - - 14.3 - 0.0
13/10:00am SSE 1 3 - - - - - - - 14.0 - 0.0
13/09:30am CALM 0 0 - - - - - - - 13.3 - 0.0
13/09:00am WNW 2 3 - - - - - - - 12.8 - 0.2
13/08:30am WNW 3 4 - - - - - - - 12.1 - 0.2
13/08:00am W 2 3 - - - - - - - 11.4 - 0.2
13/07:30am WSW 3 4 - - - - - - - 10.6 - 0.2
13/07:00am NW 3 7 - - - - - - - 9.7 - 0.2
13/06:30am ENE 1 2 - - - - - - - 8.9 - 0.2
13/06:00am CALM 0 0 - - - - - - - 10.7 - 0.2
13/05:30am CALM 0 0 - - - - - - - 10.8 - 0.2
13/05:00am SE 3 4 - - - - - - - 10.9 - 0.2
13/04:30am WSW 6 7 - - - - - - - 9.9 - 0.0
13/04:00am WNW 4 5 - - - - - - - 9.1 - 0.0
13/03:30am WNW 3 4 - - - - - - - 9.5 - 0.0
13/03:00am WNW 2 2 - - - - - - - 9.7 - 0.0
13/02:30am WNW 2 2 - - - - - - - 10.7 - 0.0
13/02:00am WNW 2 2 - - - - - - - 11.2 - 0.0
13/01:30am WNW 3 4 - - - - - - - 10.9 - 0.0
13/01:00am WSW 7 9 - - - - - - - 12.3 - 0.0
13/12:30am SW 2 3 - - - - - - - 12.5 - 0.0
13/12:00am SW 2 3 - - - - - - - 13.1 - 0.0
 
Date/Time
CST
Wind Sea
Height
m
Swell Vis
km
Cloud Weather Temp
°C
Press
MSL
hPa
Rain since
9am
mm
Dir  Spd
kts
Gust
kts
Height
m
Period
s
Dir
12/11:30pm SW 7 9 - - - - - - - 13.3 - 0.0
12/11:00pm SW 2 2 - - - - - - - 13.0 - 0.0
12/10:30pm CALM 0 0 - - - - - - - 13.3 - 0.0
12/10:00pm CALM 0 0 - - - - - - - 13.4 - 0.0
12/09:30pm SSW 2 5 - - - - - - - 13.9 - 0.0
12/09:00pm S 4 7 - - - - - - - 13.9 - 0.0
12/08:30pm SW 2 4 - - - - - - - 13.6 - 0.0
12/08:00pm S 2 3 - - - - - - - 13.5 - 0.0
12/07:30pm S 2 3 - - - - - - - 13.4 - 0.0
12/07:00pm S 4 6 - - - - - - - 13.5 - 0.0
12/06:30pm S 6 8 - - - - - - - 13.7 - 0.0
12/06:00pm SSW 8 13 - - - - - - - 13.5 - 0.0
12/05:30pm SSW 9 11 - - - - - - - 14.1 - 0.0
12/05:00pm SSW 11 14 - - - - - - - 15.3 - 0.0
12/04:30pm SW 10 15 - - - - - - - 16.7 - 0.0
12/04:00pm SSW 8 13 - - - - - - - 16.4 - 0.0
12/03:30pm S 8 11 - - - - - - - 16.4 - 0.0
12/03:00pm SSW 4 9 - - - - - - - 17.1 - 0.0
12/02:30pm S 7 13 - - - - - - - 16.8 - 0.0
12/02:00pm S 8 12 - - - - - - - 17.1 - 0.0
12/01:30pm S 9 14 - - - - - - - 18.0 - 0.0
12/01:00pm SSE 6 10 - - - - - - - 17.5 - 0.0
12/12:30pm SSW 6 11 - - - - - - - 17.1 - 0.0
12/12:00pm SSW 4 7 - - - - - - - 18.1 - 0.0
12/11:30am SW 7 9 - - - - - - - 15.9 - 0.0
12/11:00am SSW 5 11 - - - - - - - 15.8 - 0.0
12/10:30am WSW 6 9 - - - - - - - 15.0 - 0.0
12/10:00am WSW 5 7 - - - - - - - 14.8 - 0.0
12/09:30am WSW 4 6 - - - - - - - 14.3 - 0.0
12/09:00am W 4 6 - - - - - - - 13.9 - 0.2
12/08:30am W 5 8 - - - - - - - 13.5 - 0.2
12/08:00am WSW 6 8 - - - - - - - 12.9 - 0.2
12/07:30am WSW 6 8 - - - - - - - 12.6 - 0.2
12/07:00am WSW 4 5 - - - - - - - 12.4 - 0.2
12/06:30am WSW 2 3 - - - - - - - 12.2 - 0.2
12/06:00am WSW 2 3 - - - - - - - 12.3 - 0.2
12/05:30am SW 2 3 - - - - - - - 12.6 - 0.2
12/05:00am SW 3 5 - - - - - - - 12.4 - 0.2
12/04:30am SSW 3 6 - - - - - - - 12.7 - 0.2
12/04:00am SSE 2 3 - - - - - - - 12.4 - 0.2
12/03:30am SW 2 5 - - - - - - - 12.1 - 0.2
12/03:00am S 1 2 - - - - - - - 12.1 - 0.2
12/02:30am S 2 3 - - - - - - - 12.4 - 0.2
12/02:00am S 1 2 - - - - - - - 12.0 - 0.2
12/01:30am W 1 2 - - - - - - - 12.0 - 0.2
12/01:00am W 1 3 - - - - - - - 11.9 - 0.2
12/12:30am CALM 0 0 - - - - - - - 12.0 - 0.2
12/12:00am S 2 3 - - - - - - - 11.8 - 0.2

Other formats

Comma delimited format used in spreadsheet applications
http://www.bom.gov.au/fwo/IDS60701/IDS60701.94807.axf

JavaScript Object Notation format (JSON) in row-major order
http://www.bom.gov.au/fwo/IDS60701/IDS60701.94807.json

Data quality

Most of these data are generated automatically and are frequently updated. Quality checks on data are not normally performed. It is possible for incorrect values to appear. Refer to information at About Latest Weather Observations and please check the disclaimer before using these data.